Time;durP1;ratioP1;P1;durP2;ratioP2;P2;SDS_P1;SDS_P2;PMS_P1;PMS_P2;Temp;Humidity;BMP_temperature;BMP_pressure;BME280_temperature;BME280_humidity;BME280_pressure;Samples;Min_cycle;Max_cycle;Signal;HPM_P1;HPM_P2
2022/10/14 00:01:34;;;;;;;;;;;14.10;99.90;;;;;;5054649;28;19969;-63
2022/10/14 00:04:02;;;;;;;;;;;14.00;99.90;;;;;;5054949;28;20383;-63
2022/10/14 00:06:30;;;;;;;;;;;14.00;99.90;;;;;;5054918;28;19972;-63
2022/10/14 00:08:59;;;;;;;;;;;14.00;99.90;;;;;;5054626;28;20007;-63
2022/10/14 00:11:29;;;;;;;;;;;14.00;99.90;;;;;;5054536;28;19968;-63
2022/10/14 00:13:58;;;;;;;;;;;14.00;99.90;;;;;;5054280;28;19979;-63
2022/10/14 00:16:27;;;;;;;;;;;14.00;99.90;;;;;;5054620;28;19968;-63
2022/10/14 00:18:55;;;;;;;;;;;13.90;99.90;;;;;;5054458;28;19967;-63
2022/10/14 00:21:22;;;;;;;;;;;13.80;99.90;;;;;;5054240;28;19975;-63
2022/10/14 00:23:50;;;;;;;;;;;13.80;99.90;;;;;;5055096;28;19976;-63
2022/10/14 00:26:19;;;;;;;;;;;13.80;99.90;;;;;;5054427;28;20513;-63
2022/10/14 00:28:48;;;;;;;;;;;13.80;99.90;;;;;;5054320;28;20349;-63
2022/10/14 00:31:17;;;;;;;;;;;13.70;99.90;;;;;;5054140;28;20058;-63
2022/10/14 00:33:45;;;;;;;;;;;13.70;99.90;;;;;;5054269;28;20341;-63
2022/10/14 00:36:14;;;;;;;;;;;13.70;99.90;;;;;;5054151;28;19974;-63
2022/10/14 00:38:42;;;;;;;;;;;13.70;99.90;;;;;;5054031;28;20440;-64
2022/10/14 00:41:10;;;;;;;;;;;13.80;99.90;;;;;;5055555;28;19990;-64
2022/10/14 00:43:53;;;;;;;;;;;13.80;99.90;;;;;;5074209;28;19966;-64
2022/10/14 00:46:21;;;;;;;;;;;13.80;99.90;;;;;;5073861;28;20428;-64
2022/10/14 00:48:49;;;;;;;;;;;13.90;99.90;;;;;;5073793;28;19975;-63
2022/10/14 00:51:17;;;;;;;;;;;13.90;99.90;;;;;;5073998;28;20453;-63
2022/10/14 00:53:46;;;;;;;;;;;13.90;99.90;;;;;;5073868;28;19968;-64
2022/10/14 00:56:15;;;;;;;;;;;13.90;99.90;;;;;;5073839;28;19967;-63
2022/10/14 00:58:44;;;;;;;;;;;13.90;99.90;;;;;;5070787;28;19974;-63
2022/10/14 01:01:13;;;;;;;;;;;13.90;99.90;;;;;;5073600;28;19974;-63
2022/10/14 01:03:41;;;;;;;;;;;13.90;99.90;;;;;;5073788;28;20480;-63
2022/10/14 01:06:12;;;;;;;;;;;13.90;99.90;;;;;;5073467;28;20071;-63
2022/10/14 01:08:44;;;;;;;;;;;13.90;99.90;;;;;;5073622;28;19975;-63
2022/10/14 01:11:15;;;;;;;;;;;13.90;99.90;;;;;;5073372;28;19974;-63
2022/10/14 01:13:48;;;;;;;;;;;13.90;99.90;;;;;;5089795;28;20467;-63
2022/10/14 01:16:23;;;;;;;;;;;13.90;99.90;;;;;;5053688;28;19972;-63
2022/10/14 01:18:57;;;;;;;;;;;13.90;99.90;;;;;;5053379;28;19972;-63
2022/10/14 01:21:27;;;;;;;;;;;13.90;99.90;;;;;;5052738;28;20062;-63
2022/10/14 01:24:14;;;;;;;;;;;13.80;99.90;;;;;;5053407;28;19972;-63
2022/10/14 01:26:56;;;;;;;;;;;13.90;99.90;;;;;;5053507;28;19971;-63
2022/10/14 01:29:31;;;;;;;;;;;13.90;99.90;;;;;;5053238;28;19966;-63
2022/10/14 01:32:02;;;;;;;;;;;13.90;99.90;;;;;;5062663;28;20336;-63
2022/10/14 01:34:34;;;;;;;;;;;13.90;99.90;;;;;;5073182;28;19971;-63
2022/10/14 01:37:04;;;;;;;;;;;13.90;99.90;;;;;;5073195;28;19968;-63
2022/10/14 01:39:35;;;;;;;;;;;13.90;99.90;;;;;;5073000;28;19976;-63
2022/10/14 01:42:05;;;;;;;;;;;13.90;99.90;;;;;;5064461;28;20437;-63
2022/10/14 01:44:34;;;;;;;;;;;13.90;99.90;;;;;;5052532;28;19991;-63
2022/10/14 01:47:04;;;;;;;;;;;13.80;99.90;;;;;;5053081;28;19973;-63
2022/10/14 01:49:34;;;;;;;;;;;13.80;99.90;;;;;;5053327;28;19983;-63
2022/10/14 01:52:04;;;;;;;;;;;13.80;99.90;;;;;;5052881;28;19993;-63
2022/10/14 01:54:34;;;;;;;;;;;13.80;99.90;;;;;;5052630;28;20381;-63
2022/10/14 01:57:03;;;;;;;;;;;13.80;99.90;;;;;;5052918;28;19998;-63
2022/10/14 01:59:31;;;;;;;;;;;13.80;99.90;;;;;;5052319;28;19979;-63
2022/10/14 02:01:59;;;;;;;;;;;13.80;99.90;;;;;;5052867;28;20380;-63
2022/10/14 02:04:28;;;;;;;;;;;13.80;99.90;;;;;;5052848;28;19971;-63
2022/10/14 02:06:59;;;;;;;;;;;13.80;99.90;;;;;;5052976;28;19968;-63
2022/10/14 02:09:31;;;;;;;;;;;13.80;99.90;;;;;;5052435;28;20344;-63
2022/10/14 02:12:03;;;;;;;;;;;13.90;99.90;;;;;;5052815;28;19969;-64
2022/10/14 02:14:34;;;;;;;;;;;13.90;99.90;;;;;;5052638;28;20409;-64
2022/10/14 02:17:03;;;;;;;;;;;13.80;99.90;;;;;;5052529;28;19972;-63
2022/10/14 02:19:37;;;;;;;;;;;13.80;99.90;;;;;;5051954;28;19994;-63
2022/10/14 02:22:07;;;;;;;;;;;13.80;99.90;;;;;;5053250;28;19981;-64
2022/10/14 02:24:38;;;;;;;;;;;13.80;99.90;;;;;;5052456;28;20453;-63
2022/10/14 02:27:07;;;;;;;;;;;13.80;99.90;;;;;;5052355;28;19968;-63
2022/10/14 02:29:35;;;;;;;;;;;13.80;99.90;;;;;;5051882;28;20348;-64
2022/10/14 02:32:04;;;;;;;;;;;13.80;99.90;;;;;;5052120;28;19968;-63
2022/10/14 02:34:33;;;;;;;;;;;13.90;99.90;;;;;;5051945;28;19968;-64
2022/10/14 02:37:01;;;;;;;;;;;13.90;99.90;;;;;;5052408;28;20346;-63
2022/10/14 02:39:30;;;;;;;;;;;13.80;99.90;;;;;;5052344;28;20634;-64
2022/10/14 02:41:58;;;;;;;;;;;13.90;99.90;;;;;;5060196;28;20053;-64
2022/10/14 02:44:26;;;;;;;;;;;13.80;99.90;;;;;;5071945;28;19968;-64
2022/10/14 02:46:54;;;;;;;;;;;13.90;99.90;;;;;;5072039;28;20496;-63
2022/10/14 02:49:22;;;;;;;;;;;13.90;99.90;;;;;;5071721;28;19972;-63
2022/10/14 02:51:51;;;;;;;;;;;13.90;99.90;;;;;;5071801;28;20527;-63
2022/10/14 02:54:18;;;;;;;;;;;13.90;99.90;;;;;;5071966;28;19970;-63
2022/10/14 02:56:46;;;;;;;;;;;13.90;99.90;;;;;;5064079;28;19995;-64
2022/10/14 02:59:14;;;;;;;;;;;13.90;99.90;;;;;;5051696;28;19972;-63
2022/10/14 03:01:42;;;;;;;;;;;13.90;99.90;;;;;;5051608;28;19978;-63
2022/10/14 03:04:09;;;;;;;;;;;13.90;99.90;;;;;;5051861;28;19974;-63
2022/10/14 03:06:37;;;;;;;;;;;13.90;99.90;;;;;;5051378;28;19968;-63
2022/10/14 03:09:06;;;;;;;;;;;13.80;99.90;;;;;;5051566;28;19984;-63
2022/10/14 03:11:34;;;;;;;;;;;13.90;99.90;;;;;;5051575;28;20065;-63
2022/10/14 03:14:02;;;;;;;;;;;13.90;99.90;;;;;;5052294;28;19975;-63
2022/10/14 03:16:29;;;;;;;;;;;14.00;99.90;;;;;;5051741;28;20337;-63
2022/10/14 03:18:57;;;;;;;;;;;13.90;99.90;;;;;;5051676;28;19966;-64
2022/10/14 03:21:25;;;;;;;;;;;13.90;99.90;;;;;;5051506;28;19968;-63
2022/10/14 03:23:52;;;;;;;;;;;13.90;99.90;;;;;;5051643;28;19972;-63
2022/10/14 03:26:22;;;;;;;;;;;13.90;99.90;;;;;;5051846;28;19972;-63
2022/10/14 03:28:50;;;;;;;;;;;13.90;99.90;;;;;;5051484;28;19967;-63
2022/10/14 03:31:18;;;;;;;;;;;13.90;99.90;;;;;;5051952;28;20022;-63
2022/10/14 03:33:45;;;;;;;;;;;13.90;99.90;;;;;;5051582;28;19995;-63
2022/10/14 03:36:13;;;;;;;;;;;13.90;99.90;;;;;;5051721;28;19972;-63
2022/10/14 03:38:41;;;;;;;;;;;13.90;99.90;;;;;;5051400;28;19973;-63
2022/10/14 03:41:08;;;;;;;;;;;13.80;99.90;;;;;;5052420;28;19966;-64
2022/10/14 03:43:37;;;;;;;;;;;13.90;99.90;;;;;;5073424;28;19968;-64
2022/10/14 03:46:05;;;;;;;;;;;13.90;99.90;;;;;;5075103;28;20318;-64
2022/10/14 03:48:33;;;;;;;;;;;13.80;99.90;;;;;;5060661;28;20154;-64
2022/10/14 03:51:01;;;;;;;;;;;13.80;99.90;;;;;;5055054;28;19988;-63
2022/10/14 03:53:29;;;;;;;;;;;13.80;99.90;;;;;;5055160;28;20014;-63
2022/10/14 03:55:56;;;;;;;;;;;13.90;99.90;;;;;;5054819;28;19971;-63
2022/10/14 03:58:24;;;;;;;;;;;13.90;99.90;;;;;;5067248;28;19972;-63
2022/10/14 04:00:53;;;;;;;;;;;13.80;99.90;;;;;;5074627;28;20057;-63
2022/10/14 04:03:21;;;;;;;;;;;13.90;99.90;;;;;;5074952;28;20569;-63
2022/10/14 04:05:48;;;;;;;;;;;13.90;99.90;;;;;;5073623;28;20321;-63
2022/10/14 04:08:16;;;;;;;;;;;13.80;99.90;;;;;;5074853;28;19966;-63
2022/10/14 04:10:44;;;;;;;;;;;13.90;99.90;;;;;;5074491;28;19968;-64
2022/10/14 04:13:12;;;;;;;;;;;13.90;99.90;;;;;;5074736;28;19974;-64
2022/10/14 04:15:39;;;;;;;;;;;13.90;99.90;;;;;;5074535;28;19973;-64
2022/10/14 04:18:09;;;;;;;;;;;13.80;99.90;;;;;;5074751;28;19974;-63
2022/10/14 04:20:36;;;;;;;;;;;13.80;99.90;;;;;;5074270;28;19976;-62
2022/10/14 04:23:04;;;;;;;;;;;13.80;99.90;;;;;;5056111;28;19978;-63
2022/10/14 04:25:32;;;;;;;;;;;13.70;99.90;;;;;;5054905;28;19968;-63
2022/10/14 04:28:00;;;;;;;;;;;13.70;99.90;;;;;;5063474;28;19964;-63
2022/10/14 04:30:28;;;;;;;;;;;13.70;99.90;;;;;;5066441;28;19964;-63
2022/10/14 04:32:55;;;;;;;;;;;13.70;99.90;;;;;;5074440;28;19980;-64
2022/10/14 04:35:24;;;;;;;;;;;13.60;99.90;;;;;;5074099;28;20449;-64
2022/10/14 04:37:52;;;;;;;;;;;13.70;99.90;;;;;;5073446;28;20433;-64
2022/10/14 04:40:24;;;;;;;;;;;13.70;99.90;;;;;;5071577;28;20321;-63
2022/10/14 04:42:54;;;;;;;;;;;13.70;99.90;;;;;;5076293;28;20440;-64
2022/10/14 04:45:22;;;;;;;;;;;13.70;99.90;;;;;;5082092;28;20018;-64
2022/10/14 04:47:49;;;;;;;;;;;13.70;99.90;;;;;;5072107;28;19968;-63
2022/10/14 04:50:18;;;;;;;;;;;13.70;99.90;;;;;;5073189;28;19962;-64
2022/10/14 04:52:47;;;;;;;;;;;13.60;99.90;;;;;;5075116;28;19974;-63
2022/10/14 04:55:14;;;;;;;;;;;13.50;99.90;;;;;;5071046;28;19964;-61
2022/10/14 04:57:43;;;;;;;;;;;13.50;99.90;;;;;;5062116;28;19970;-62
2022/10/14 05:00:11;;;;;;;;;;;13.40;99.90;;;;;;5062285;28;19974;-62
2022/10/14 05:02:39;;;;;;;;;;;13.40;99.90;;;;;;5063112;28;19994;-62
2022/10/14 05:05:07;;;;;;;;;;;13.50;99.90;;;;;;5064883;28;19976;-62
2022/10/14 05:07:35;;;;;;;;;;;13.50;99.90;;;;;;5063540;28;19978;-62
2022/10/14 05:10:05;;;;;;;;;;;13.50;99.90;;;;;;5059525;28;20009;-63
2022/10/14 05:12:33;;;;;;;;;;;13.50;99.90;;;;;;5063265;28;20445;-62
2022/10/14 05:15:00;;;;;;;;;;;13.50;99.90;;;;;;5062843;28;19974;-62
2022/10/14 05:17:28;;;;;;;;;;;13.40;99.90;;;;;;5063775;28;19976;-62
2022/10/14 05:19:56;;;;;;;;;;;13.50;99.90;;;;;;5060353;28;19964;-63
2022/10/14 05:22:24;;;;;;;;;;;13.40;99.90;;;;;;5063218;28;19970;-62
2022/10/14 05:24:51;;;;;;;;;;;13.40;99.90;;;;;;5061382;28;20324;-62
2022/10/14 05:27:20;;;;;;;;;;;13.40;99.90;;;;;;5062961;28;19974;-61
2022/10/14 05:29:48;;;;;;;;;;;13.40;99.90;;;;;;5061187;28;19972;-62
2022/10/14 05:32:16;;;;;;;;;;;13.40;99.90;;;;;;5064275;28;20356;-61
2022/10/14 05:34:44;;;;;;;;;;;13.30;99.90;;;;;;5062972;28;19971;-62
2022/10/14 05:37:11;;;;;;;;;;;13.30;99.90;;;;;;5063967;28;19982;-61
2022/10/14 05:39:39;;;;;;;;;;;13.30;99.90;;;;;;5060049;28;21105;-62
2022/10/14 05:42:07;;;;;;;;;;;13.30;99.90;;;;;;5063304;28;19972;-62
2022/10/14 05:44:36;;;;;;;;;;;13.30;99.90;;;;;;5062694;28;19981;-63
2022/10/14 05:47:04;;;;;;;;;;;13.30;99.90;;;;;;5062582;28;19979;-62
2022/10/14 05:49:31;;;;;;;;;;;13.20;99.90;;;;;;5061601;28;20732;-62
2022/10/14 05:51:59;;;;;;;;;;;13.20;99.90;;;;;;5062572;28;19975;-63
2022/10/14 05:54:27;;;;;;;;;;;13.30;99.90;;;;;;5062554;28;19989;-62
2022/10/14 05:56:55;;;;;;;;;;;13.30;99.90;;;;;;5060718;28;20016;-62
2022/10/14 05:59:22;;;;;;;;;;;13.30;99.90;;;;;;5059273;28;19982;-63
2022/10/14 06:01:51;;;;;;;;;;;13.30;99.90;;;;;;5062910;28;19968;-63
2022/10/14 06:04:20;;;;;;;;;;;13.30;99.90;;;;;;5061779;28;20042;-62
2022/10/14 06:06:47;;;;;;;;;;;13.30;99.90;;;;;;5062118;28;20463;-63
2022/10/14 06:09:15;;;;;;;;;;;13.30;99.90;;;;;;5063976;28;19971;-63
2022/10/14 06:11:43;;;;;;;;;;;13.30;99.90;;;;;;5067286;28;19962;-63
2022/10/14 06:14:11;;;;;;;;;;;13.20;99.90;;;;;;5067152;28;19972;-62
2022/10/14 06:16:38;;;;;;;;;;;13.30;99.90;;;;;;5072753;28;19974;-63
2022/10/14 06:19:07;;;;;;;;;;;13.20;99.90;;;;;;5071120;28;19964;-63
2022/10/14 06:21:35;;;;;;;;;;;13.30;99.90;;;;;;5069653;28;20207;-63
2022/10/14 06:24:03;;;;;;;;;;;13.30;99.90;;;;;;5070179;28;20003;-63
2022/10/14 06:26:31;;;;;;;;;;;13.30;99.90;;;;;;5070791;28;20021;-63
2022/10/14 06:28:59;;;;;;;;;;;13.30;99.90;;;;;;5072004;28;19968;-63
2022/10/14 06:31:27;;;;;;;;;;;13.30;99.90;;;;;;5071174;28;19997;-63
2022/10/14 06:33:59;;;;;;;;;;;13.30;99.90;;;;;;5072124;28;19973;-63
2022/10/14 06:36:28;;;;;;;;;;;13.30;99.90;;;;;;5071946;28;19968;-63
2022/10/14 06:38:56;;;;;;;;;;;13.30;99.90;;;;;;5072171;28;19975;-62
2022/10/14 06:41:24;;;;;;;;;;;13.30;99.90;;;;;;5071658;28;20359;-62
2022/10/14 06:43:51;;;;;;;;;;;13.30;99.90;;;;;;5071885;28;19966;-62
2022/10/14 06:46:19;;;;;;;;;;;13.40;99.90;;;;;;5071673;28;19978;-62
2022/10/14 06:48:47;;;;;;;;;;;13.40;99.90;;;;;;5071967;28;19972;-62
2022/10/14 06:51:17;;;;;;;;;;;13.40;99.90;;;;;;5071437;28;19971;-62
2022/10/14 06:53:46;;;;;;;;;;;13.40;99.90;;;;;;5071911;28;19968;-62
2022/10/14 06:56:14;;;;;;;;;;;13.40;99.90;;;;;;5071695;28;19971;-62
2022/10/14 06:58:41;;;;;;;;;;;13.40;99.90;;;;;;5071737;28;19982;-63
2022/10/14 07:01:09;;;;;;;;;;;13.40;99.90;;;;;;5071512;28;20066;-63
2022/10/14 07:03:38;;;;;;;;;;;13.40;99.90;;;;;;5071791;28;19971;-62
2022/10/14 07:06:06;;;;;;;;;;;13.40;99.90;;;;;;5071657;28;19968;-63
2022/10/14 07:08:34;;;;;;;;;;;13.40;99.90;;;;;;5071731;28;19974;-63
2022/10/14 07:11:03;;;;;;;;;;;13.50;99.90;;;;;;5071021;28;19976;-62
2022/10/14 07:13:32;;;;;;;;;;;13.40;99.90;;;;;;5071868;28;19972;-63
2022/10/14 07:16:00;;;;;;;;;;;13.40;99.90;;;;;;5071599;28;19967;-62
2022/10/14 07:18:28;;;;;;;;;;;13.40;99.90;;;;;;5073278;28;20334;-63
2022/10/14 07:20:56;;;;;;;;;;;13.40;99.90;;;;;;5074851;28;20342;-63
2022/10/14 07:23:24;;;;;;;;;;;13.40;99.90;;;;;;5075571;28;19967;-63
2022/10/14 07:25:51;;;;;;;;;;;13.40;99.90;;;;;;5075434;28;20462;-62
2022/10/14 07:28:20;;;;;;;;;;;13.30;99.90;;;;;;5075546;28;20479;-62
2022/10/14 07:30:56;;;;;;;;;;;13.40;99.90;;;;;;5075014;28;20011;-63
2022/10/14 07:33:23;;;;;;;;;;;13.30;99.90;;;;;;5075345;28;19979;-62
2022/10/14 07:35:51;;;;;;;;;;;13.40;99.90;;;;;;5075206;28;19968;-63
2022/10/14 07:38:19;;;;;;;;;;;13.40;99.90;;;;;;5075186;28;20000;-63
2022/10/14 07:40:54;;;;;;;;;;;13.50;99.90;;;;;;5074767;28;20384;-62
2022/10/14 07:43:24;;;;;;;;;;;13.50;99.90;;;;;;5075197;28;20440;-62
2022/10/14 07:45:58;;;;;;;;;;;13.40;99.90;;;;;;5074891;28;19968;-63
2022/10/14 07:48:27;;;;;;;;;;;13.50;99.90;;;;;;5075176;28;20433;-63
2022/10/14 07:51:11;;;;;;;;;;;13.40;99.90;;;;;;5074572;28;20444;-63
2022/10/14 07:53:39;;;;;;;;;;;13.50;99.90;;;;;;5075114;28;20078;-63
2022/10/14 07:56:06;;;;;;;;;;;13.40;99.90;;;;;;5074797;28;19967;-63
2022/10/14 07:58:36;;;;;;;;;;;13.50;99.90;;;;;;5074710;28;20440;-63
2022/10/14 08:01:10;;;;;;;;;;;13.50;99.90;;;;;;5074588;28;19978;-63
2022/10/14 08:03:37;;;;;;;;;;;13.50;99.90;;;;;;5074791;28;20061;-62
2022/10/14 08:06:05;;;;;;;;;;;13.50;99.90;;;;;;5074827;28;20014;-62
2022/10/14 08:08:33;;;;;;;;;;;13.50;99.90;;;;;;5074685;28;20082;-63
2022/10/14 08:11:02;;;;;;;;;;;13.60;99.90;;;;;;5074216;28;20347;-63
2022/10/14 08:13:30;;;;;;;;;;;13.60;99.90;;;;;;5074567;28;19975;-62
2022/10/14 08:15:59;;;;;;;;;;;13.60;99.90;;;;;;5074622;28;19976;-63
2022/10/14 08:18:27;;;;;;;;;;;13.70;99.90;;;;;;5074501;28;19968;-62
2022/10/14 08:20:55;;;;;;;;;;;13.70;99.90;;;;;;5073637;28;19972;-62
2022/10/14 08:23:22;;;;;;;;;;;13.70;99.90;;;;;;5074451;28;19974;-62
2022/10/14 08:25:50;;;;;;;;;;;13.80;99.90;;;;;;5074401;28;19968;-63
2022/10/14 08:28:18;;;;;;;;;;;13.80;99.90;;;;;;5074730;28;19978;-62
2022/10/14 08:30:47;;;;;;;;;;;13.90;99.90;;;;;;5073765;28;19972;-62
2022/10/14 08:33:16;;;;;;;;;;;13.90;99.90;;;;;;5074340;28;19968;-63
2022/10/14 08:35:44;;;;;;;;;;;13.90;99.90;;;;;;5074100;28;20043;-63
2022/10/14 08:38:11;;;;;;;;;;;13.90;99.90;;;;;;5074303;28;19976;-63
2022/10/14 08:40:48;;;;;;;;;;;13.90;99.90;;;;;;5073684;28;20474;-63
2022/10/14 08:43:24;;;;;;;;;;;13.90;99.90;;;;;;5074153;28;20455;-63
2022/10/14 08:45:53;;;;;;;;;;;13.90;99.90;;;;;;5073813;28;20433;-63
2022/10/14 08:48:24;;;;;;;;;;;13.90;99.90;;;;;;5073989;28;19968;-63
2022/10/14 08:50:54;;;;;;;;;;;13.90;99.90;;;;;;5073437;28;19978;-63
2022/10/14 08:53:27;;;;;;;;;;;13.90;99.90;;;;;;5074091;28;19974;-63
2022/10/14 08:55:59;;;;;;;;;;;13.90;99.90;;;;;;5074017;28;19968;-63
2022/10/14 08:58:28;;;;;;;;;;;13.90;99.90;;;;;;5073704;28;19972;-63
2022/10/14 09:00:56;;;;;;;;;;;13.80;99.90;;;;;;5073322;28;20079;-62
2022/10/14 09:03:31;;;;;;;;;;;13.90;99.90;;;;;;5073659;28;19975;-63
2022/10/14 09:06:01;;;;;;;;;;;14.00;99.90;;;;;;5074000;28;20359;-63
2022/10/14 09:08:33;;;;;;;;;;;13.90;99.90;;;;;;5073638;28;19974;-62
2022/10/14 09:11:01;;;;;;;;;;;14.00;99.90;;;;;;5072888;28;19968;-62
2022/10/14 09:13:30;;;;;;;;;;;14.00;99.90;;;;;;5073544;28;19971;-62
2022/10/14 09:16:01;;;;;;;;;;;14.00;99.90;;;;;;5073370;28;19972;-63
2022/10/14 09:18:33;;;;;;;;;;;14.00;99.90;;;;;;5073363;28;20078;-62
2022/10/14 09:21:02;;;;;;;;;;;14.10;99.90;;;;;;5072380;28;19975;-63
2022/10/14 09:23:29;;;;;;;;;;;14.10;99.90;;;;;;5073263;28;19972;-62
2022/10/14 09:25:58;;;;;;;;;;;14.20;99.90;;;;;;5073212;28;19979;-63
2022/10/14 09:28:31;;;;;;;;;;;14.20;99.90;;;;;;5073326;28;19972;-62
2022/10/14 09:30:59;;;;;;;;;;;14.20;99.90;;;;;;5072612;28;19975;-63
2022/10/14 09:33:28;;;;;;;;;;;14.30;99.90;;;;;;5072934;28;20432;-63
2022/10/14 09:35:57;;;;;;;;;;;14.30;99.90;;;;;;5072963;28;20504;-63
2022/10/14 09:38:26;;;;;;;;;;;14.30;99.90;;;;;;5072827;28;20494;-63
2022/10/14 09:40:55;;;;;;;;;;;14.40;99.90;;;;;;5071914;28;19974;-62
2022/10/14 09:43:24;;;;;;;;;;;14.40;99.90;;;;;;5072766;28;19975;-63
2022/10/14 09:45:55;;;;;;;;;;;14.40;99.90;;;;;;5072538;28;19994;-63
2022/10/14 09:48:31;;;;;;;;;;;14.40;99.90;;;;;;5072725;28;19974;-62
2022/10/14 09:51:01;;;;;;;;;;;14.50;99.90;;;;;;5072743;28;20402;-63
2022/10/14 09:53:30;;;;;;;;;;;14.50;99.90;;;;;;5072791;28;19980;-63
2022/10/14 09:55:59;;;;;;;;;;;14.50;99.90;;;;;;5072599;28;19976;-63
2022/10/14 09:58:29;;;;;;;;;;;14.60;99.90;;;;;;5072169;28;19990;-63
2022/10/14 10:00:57;;;;;;;;;;;14.60;99.90;;;;;;5072447;28;19967;-63
2022/10/14 10:03:26;;;;;;;;;;;14.70;99.90;;;;;;5072757;28;19972;-63
2022/10/14 10:06:03;;;;;;;;;;;14.90;99.90;;;;;;5072320;28;20066;-63
2022/10/14 10:08:32;;;;;;;;;;;14.90;99.90;;;;;;5072366;28;19968;-63
2022/10/14 10:11:01;;;;;;;;;;;15.00;99.90;;;;;;5072020;28;19968;-63
2022/10/14 10:13:37;;;;;;;;;;;15.00;99.90;;;;;;5072441;28;19967;-62
2022/10/14 10:16:05;;;;;;;;;;;15.00;99.90;;;;;;5072105;28;19990;-63
2022/10/14 10:18:33;;;;;;;;;;;15.00;99.90;;;;;;5072259;28;19972;-62
2022/10/14 10:21:05;;;;;;;;;;;15.00;99.90;;;;;;5071584;28;19974;-63
2022/10/14 10:23:34;;;;;;;;;;;15.10;99.90;;;;;;5072223;28;20470;-63
2022/10/14 10:26:14;;;;;;;;;;;15.10;99.90;;;;;;5072123;28;19966;-63
2022/10/14 10:28:45;;;;;;;;;;;15.20;99.90;;;;;;5072365;28;19972;-62
2022/10/14 10:31:19;;;;;;;;;;;15.20;99.90;;;;;;5071943;28;19972;-62
2022/10/14 10:33:52;;;;;;;;;;;15.20;99.90;;;;;;5072332;28;19967;-63
2022/10/14 10:36:27;;;;;;;;;;;15.20;99.90;;;;;;5071953;28;20070;-62
2022/10/14 10:38:58;;;;;;;;;;;15.10;99.90;;;;;;5072057;28;20412;-62
2022/10/14 10:41:45;;;;;;;;;;;15.20;99.90;;;;;;5072354;28;20075;-63
2022/10/14 10:44:27;;;;;;;;;;;15.00;99.90;;;;;;5072137;28;19967;-62
2022/10/14 10:47:01;;;;;;;;;;;15.10;99.90;;;;;;5071812;28;19967;-62
2022/10/14 10:49:37;;;;;;;;;;;15.20;99.90;;;;;;5071957;28;19973;-62
2022/10/14 10:52:08;;;;;;;;;;;15.10;99.90;;;;;;5089921;23;19968;-63
2022/10/14 10:54:40;;;;;;;;;;;15.20;99.90;;;;;;5043230;28;19964;-64
2022/10/14 10:57:12;;;;;;;;;;;15.20;99.90;;;;;;5051428;28;20427;-64
2022/10/14 10:59:47;;;;;;;;;;;15.20;99.90;;;;;;5051678;28;19994;-64
2022/10/14 11:02:33;;;;;;;;;;;15.20;99.90;;;;;;5051741;28;20010;-64
2022/10/14 11:05:04;;;;;;;;;;;15.10;99.90;;;;;;5051941;28;20082;-64
2022/10/14 11:13:15;;;;;;;;;;;15.00;99.90;;;;;;5051798;28;20011;-64
2022/10/14 11:15:48;;;;;;;;;;;14.90;99.90;;;;;;5051618;28;19979;-64
2022/10/14 11:18:23;;;;;;;;;;;15.00;99.90;;;;;;5051477;28;19968;-64
2022/10/14 11:20:59;;;;;;;;;;;14.90;99.90;;;;;;5050910;28;19975;-64
2022/10/14 11:23:34;;;;;;;;;;;14.90;99.90;;;;;;5051735;28;20441;-63
2022/10/14 11:26:05;;;;;;;;;;;15.00;99.90;;;;;;5051603;28;20344;-65
2022/10/14 11:28:37;;;;;;;;;;;15.00;99.90;;;;;;5051693;28;19982;-64
2022/10/14 11:31:08;;;;;;;;;;;14.90;99.90;;;;;;5051304;28;19979;-64
2022/10/14 11:33:51;;;;;;;;;;;14.90;99.90;;;;;;5051417;28;19967;-64
2022/10/14 11:36:26;;;;;;;;;;;14.90;99.90;;;;;;5051381;28;19973;-63
2022/10/14 11:39:03;;;;;;;;;;;14.90;99.90;;;;;;5051452;28;19979;-64
2022/10/14 11:41:36;;;;;;;;;;;14.80;99.90;;;;;;5051209;28;20549;-64
2022/10/14 11:44:07;;;;;;;;;;;14.80;99.90;;;;;;5051333;28;19966;-64
2022/10/14 11:46:37;;;;;;;;;;;14.80;99.90;;;;;;5051235;28;19999;-64
2022/10/14 11:49:10;;;;;;;;;;;14.70;99.90;;;;;;5051411;28;19971;-64
2022/10/14 11:51:41;;;;;;;;;;;14.70;99.90;;;;;;5051455;28;19969;-64
2022/10/14 11:54:13;;;;;;;;;;;14.70;99.90;;;;;;5051102;28;20065;-64
2022/10/14 11:56:44;;;;;;;;;;;14.70;99.90;;;;;;5051134;28;19966;-64
2022/10/14 11:59:26;;;;;;;;;;;14.70;99.90;;;;;;5051269;28;20432;-64
2022/10/14 12:01:55;;;;;;;;;;;14.60;99.90;;;;;;5051266;28;19979;-64
2022/10/14 12:04:25;;;;;;;;;;;14.70;99.90;;;;;;5052498;28;20003;-64
2022/10/14 12:06:59;;;;;;;;;;;14.60;99.90;;;;;;5054514;28;20046;-64
2022/10/14 12:09:32;;;;;;;;;;;14.60;99.90;;;;;;5054708;28;19968;-64
2022/10/14 12:12:03;;;;;;;;;;;14.60;99.90;;;;;;5054579;28;20425;-63
2022/10/14 12:14:33;;;;;;;;;;;14.60;99.90;;;;;;5054759;28;19968;-64
2022/10/14 12:17:03;;;;;;;;;;;14.60;99.90;;;;;;5054369;28;19972;-63
2022/10/14 12:19:31;;;;;;;;;;;14.50;99.90;;;;;;5053950;28;19979;-64
2022/10/14 12:22:04;;;;;;;;;;;14.50;99.90;;;;;;5054474;28;20003;-64
2022/10/14 12:24:36;;;;;;;;;;;14.50;99.90;;;;;;5054339;28;19974;-64
2022/10/14 12:27:05;;;;;;;;;;;14.50;99.90;;;;;;5054438;28;19968;-64
2022/10/14 12:29:35;;;;;;;;;;;14.50;99.90;;;;;;5054160;28;20356;-64
2022/10/14 12:32:08;;;;;;;;;;;14.50;99.90;;;;;;5054499;28;20065;-64
2022/10/14 12:34:37;;;;;;;;;;;14.40;99.90;;;;;;5054225;28;20352;-64
2022/10/14 12:37:23;;;;;;;;;;;14.40;99.90;;;;;;5054019;28;20479;-63
2022/10/14 12:40:12;;;;;;;;;;;14.30;99.90;;;;;;5054209;28;19997;-66
2022/10/14 12:42:53;;;;;;;;;;;14.40;99.90;;;;;;5053909;28;20455;-66
2022/10/14 12:45:21;;;;;;;;;;;14.40;99.90;;;;;;5054306;28;20340;-66
2022/10/14 12:48:00;;;;;;;;;;;14.30;99.90;;;;;;5053833;28;20520;-66
2022/10/14 12:50:30;;;;;;;;;;;14.30;99.90;;;;;;5053893;28;20036;-66
2022/10/14 12:52:59;;;;;;;;;;;14.30;99.90;;;;;;5053733;28;19974;-66
2022/10/14 12:55:29;;;;;;;;;;;14.30;99.90;;;;;;5053993;28;20407;-67
2022/10/14 12:57:59;;;;;;;;;;;14.30;99.90;;;;;;5053602;28;20437;-66
2022/10/14 13:00:28;;;;;;;;;;;14.30;99.90;;;;;;5053494;28;20061;-67
2022/10/14 13:02:59;;;;;;;;;;;14.30;99.90;;;;;;5053730;28;20003;-66
2022/10/14 13:05:30;;;;;;;;;;;14.30;99.90;;;;;;5053842;28;20015;-66
2022/10/14 13:08:21;;;;;;;;;;;14.30;99.90;;;;;;5053536;28;19973;-66
2022/10/14 13:10:51;;;;;;;;;;;14.30;99.90;;;;;;5047977;28;20334;-66
2022/10/14 13:13:38;;;;;;;;;;;14.30;99.90;;;;;;5036118;28;20367;-66
2022/10/14 13:16:08;;;;;;;;;;;14.30;99.90;;;;;;5052788;28;19972;-66
2022/10/14 13:18:47;;;;;;;;;;;14.30;99.90;;;;;;5053291;28;20338;-66
2022/10/14 13:21:25;;;;;;;;;;;14.30;99.90;;;;;;5053305;28;19974;-66
2022/10/14 13:23:54;;;;;;;;;;;14.30;99.90;;;;;;5053336;28;20067;-66
2022/10/14 13:26:23;;;;;;;;;;;14.30;99.90;;;;;;5053344;28;19967;-66
2022/10/14 13:28:58;;;;;;;;;;;14.30;99.90;;;;;;5053166;28;20061;-66
2022/10/14 13:31:33;;;;;;;;;;;14.30;99.90;;;;;;5052942;28;20029;-66
2022/10/14 13:34:11;;;;;;;;;;;14.40;99.90;;;;;;5053152;28;20440;-66
2022/10/14 13:36:42;;;;;;;;;;;14.40;99.90;;;;;;5053060;28;19998;-66
2022/10/14 13:39:10;;;;;;;;;;;14.40;99.90;;;;;;5053210;28;20428;-67
2022/10/14 13:41:39;;;;;;;;;;;14.40;99.90;;;;;;5052811;28;19972;-66
2022/10/14 13:44:10;;;;;;;;;;;14.50;99.90;;;;;;5052852;28;20003;-66
2022/10/14 13:46:42;;;;;;;;;;;14.50;99.90;;;;;;5052799;28;19968;-66
2022/10/14 13:49:13;;;;;;;;;;;14.50;99.90;;;;;;5052944;28;20014;-66
2022/10/14 13:51:48;;;;;;;;;;;14.40;99.90;;;;;;5052692;28;20011;-66
2022/10/14 13:54:17;;;;;;;;;;;14.50;99.90;;;;;;5052618;28;19979;-65
2022/10/14 13:56:57;;;;;;;;;;;14.50;99.90;;;;;;5052749;28;19972;-66
2022/10/14 13:59:45;;;;;;;;;;;14.50;99.90;;;;;;5052458;28;19974;-66
2022/10/14 14:02:34;;;;;;;;;;;14.50;99.90;;;;;;5052453;28;19968;-66
2022/10/14 14:05:02;;;;;;;;;;;14.50;99.90;;;;;;5052963;28;19972;-66
2022/10/14 14:07:32;;;;;;;;;;;14.50;99.90;;;;;;5052683;28;20051;-66
2022/10/14 14:10:22;;;;;;;;;;;14.50;99.90;;;;;;5052305;28;19975;-66
2022/10/14 14:12:50;;;;;;;;;;;14.50;99.90;;;;;;5052393;28;20022;-66
2022/10/14 14:15:23;;;;;;;;;;;14.50;99.90;;;;;;5052328;28;20012;-66
2022/10/14 14:17:52;;;;;;;;;;;14.50;99.90;;;;;;5052587;28;19994;-66
2022/10/14 14:20:21;;;;;;;;;;;14.50;99.90;;;;;;5051795;28;20055;-66
2022/10/14 14:22:49;;;;;;;;;;;14.50;99.90;;;;;;5052106;28;19968;-66
2022/10/14 14:25:21;;;;;;;;;;;14.50;99.90;;;;;;5052254;28;20471;-66
2022/10/14 14:28:12;;;;;;;;;;;14.50;99.90;;;;;;5052137;28;19979;-66
2022/10/14 14:30:40;;;;;;;;;;;14.60;99.90;;;;;;5051956;28;19973;-65
2022/10/14 14:33:12;;;;;;;;;;;14.50;99.90;;;;;;5052086;28;20351;-66
2022/10/14 14:35:40;;;;;;;;;;;14.50;99.90;;;;;;5052016;28;19967;-66
2022/10/14 14:38:23;;;;;;;;;;;14.50;99.90;;;;;;5051954;28;20066;-66
2022/10/14 14:40:59;;;;;;;;;;;14.60;99.90;;;;;;5051884;28;19976;-66